Time,TemperatureF,DewpointF,PressureIn,WindDirection,WindDirectionDegrees,WindSpeedMPH,WindSpeedGustMPH,Humidity,HourlyPrecipIn,Conditions,Clouds,dailyrainin,SoftwareType,DateUTC
2013-06-25 00:11:00,68.0,-99.9,-100.00,SSE,158,5.0,9.0,-999,0.00,,,0.70,,2013-06-25 05:11:00,
2013-06-25 00:22:00,68.0,-99.9,-100.00,SSE,158,5.0,9.0,-999,0.00,,,0.70,,2013-06-25 05:22:00,
2013-06-25 00:45:00,71.0,-99.9,-100.00,SE,145,3.0,6.0,-999,0.00,,,0.70,,2013-06-25 05:45:00,
2013-06-25 00:52:00,71.0,-99.9,-100.00,SE,145,3.0,6.0,-999,0.00,,,0.70,,2013-06-25 05:52:00,
2013-06-25 01:11:00,69.0,-99.9,-100.00,South,176,1.0,5.0,-999,0.00,,,0.70,,2013-06-25 06:11:00,
2013-06-25 01:22:00,69.0,-99.9,-100.00,South,176,1.0,5.0,-999,0.00,,,0.70,,2013-06-25 06:22:00,
2013-06-25 01:43:00,68.0,-99.9,-100.00,North,353,2.0,14.0,-999,0.06,,,0.76,,2013-06-25 06:43:00,
2013-06-25 01:52:00,68.0,-99.9,-100.00,North,353,2.0,14.0,-999,0.06,,,0.76,,2013-06-25 06:52:00,
2013-06-25 02:11:00,69.0,-99.9,-100.00,North,357,10.0,12.0,-999,0.07,,,0.77,,2013-06-25 07:11:00,
2013-06-25 02:22:00,69.0,-99.9,-100.00,North,357,10.0,12.0,-999,0.07,,,0.77,,2013-06-25 07:22:00,
2013-06-25 02:43:00,68.0,-99.9,-100.00,ESE,107,4.0,6.0,-999,0.01,,,0.77,,2013-06-25 07:43:00,
2013-06-25 02:52:00,68.0,-99.9,-100.00,ESE,107,4.0,6.0,-999,0.01,,,0.77,,2013-06-25 07:52:00,
2013-06-25 03:11:00,68.0,-99.9,-100.00,SSE,151,7.0,10.0,-999,0.00,,,0.77,,2013-06-25 08:11:00,
2013-06-25 03:22:00,68.0,-99.9,-100.00,SSE,151,7.0,10.0,-999,0.00,,,0.77,,2013-06-25 08:22:00,
2013-06-25 03:30:00,69.0,-99.9,-100.00,SE,135,2.0,4.0,-999,0.00,,,0.76,,2013-06-25 08:30:00,
2013-06-25 03:43:00,68.0,-99.9,-100.00,SE,143,1.0,5.0,-999,0.00,,,0.77,,2013-06-25 08:43:00,
2013-06-25 03:53:00,68.0,-99.9,-100.00,SE,143,1.0,5.0,-999,0.00,,,0.77,,2013-06-25 08:53:00,
2013-06-25 04:12:00,69.0,-99.9,-100.00,SE,135,2.0,4.0,-999,0.00,,,0.76,,2013-06-25 09:12:00,
2013-06-25 04:22:00,69.0,-99.9,-100.00,SE,135,2.0,4.0,-999,0.00,,,0.76,,2013-06-25 09:22:00,
2013-06-25 05:00:00,67.0,-99.9,-100.00,ESE,121,2.0,4.0,-999,0.00,,,0.73,,2013-06-25 10:00:00,
2013-06-25 05:11:00,68.0,-99.9,-100.00,ESE,114,1.0,3.0,-999,0.00,,,0.73,,2013-06-25 10:11:00,
2013-06-25 05:22:00,68.0,-99.9,-100.00,ESE,114,1.0,3.0,-999,0.00,,,0.73,,2013-06-25 10:22:00,
2013-06-25 05:43:00,67.0,-99.9,-100.00,ESE,121,2.0,4.0,-999,0.00,,,0.73,,2013-06-25 10:43:00,
2013-06-25 05:52:00,67.0,-99.9,-100.00,ESE,121,2.0,4.0,-999,0.00,,,0.73,,2013-06-25 10:52:00,
2013-06-25 06:30:00,69.0,-99.9,-100.00,North,1,6.0,10.0,-999,0.00,,,0.61,,2013-06-25 11:30:00,
2013-06-25 06:43:00,68.0,-99.9,-100.00,SSE,151,1.0,3.0,-999,0.00,,,0.64,,2013-06-25 11:43:00,
2013-06-25 06:52:00,68.0,-99.9,-100.00,SSE,151,1.0,3.0,-999,0.00,,,0.64,,2013-06-25 11:52:00,
2013-06-25 07:12:00,69.0,-99.9,-100.00,North,1,6.0,10.0,-999,0.00,,,0.61,,2013-06-25 12:12:00,
2013-06-25 07:22:00,69.0,-99.9,-100.00,North,1,6.0,10.0,-999,0.00,,,0.61,,2013-06-25 12:22:00,
2013-06-25 08:12:00,68.0,-99.9,-100.00,SE,144,1.0,3.0,-999,1.02,,,1.60,,2013-06-25 13:12:00,
2013-06-25 08:22:00,68.0,-99.9,-100.00,SE,144,1.0,3.0,-999,1.02,,,1.60,,2013-06-25 13:22:00,
2013-06-25 08:43:00,68.0,-99.9,-100.00,South,173,1.0,2.0,-999,0.20,,,1.64,,2013-06-25 13:43:00,
2013-06-25 08:54:00,68.0,-99.9,-100.00,South,173,1.0,2.0,-999,0.20,,,1.64,,2013-06-25 13:54:00,
2013-06-25 09:11:00,68.0,-99.9,-100.00,SE,125,2.0,4.0,-999,0.05,,,1.64,,2013-06-25 14:11:00,
2013-06-25 09:23:00,68.0,-99.9,-100.00,SE,125,2.0,4.0,-999,0.05,,,1.64,,2013-06-25 14:23:00,
2013-06-25 09:43:00,69.0,-99.9,-100.00,SE,138,3.0,5.0,-999,0.01,,,1.63,,2013-06-25 14:43:00,
2013-06-25 09:53:00,69.0,-99.9,-100.00,SE,138,3.0,5.0,-999,0.01,,,1.63,,2013-06-25 14:53:00,
2013-06-25 10:11:00,69.0,-99.9,-100.00,SE,143,8.0,10.0,-999,0.01,,,1.61,,2013-06-25 15:11:00,
2013-06-25 10:22:00,69.0,-99.9,-100.00,SE,143,8.0,10.0,-999,0.01,,,1.61,,2013-06-25 15:22:00,
2013-06-25 10:30:00,73.0,-99.9,-100.00,South,171,5.0,10.0,-999,0.00,,,1.61,,2013-06-25 15:30:00,
2013-06-25 10:44:00,71.0,-99.9,-100.00,SSE,154,10.0,13.0,-999,0.00,,,1.61,,2013-06-25 15:44:00,
2013-06-25 10:53:00,71.0,-99.9,-100.00,SSE,154,10.0,13.0,-999,0.00,,,1.61,,2013-06-25 15:53:00,
2013-06-25 11:12:00,73.0,-99.9,-100.00,South,171,5.0,10.0,-999,0.00,,,1.61,,2013-06-25 16:12:00,
2013-06-25 11:23:00,73.0,-99.9,-100.00,South,171,5.0,10.0,-999,0.00,,,1.61,,2013-06-25 16:23:00,
2013-06-25 12:11:00,79.0,-99.9,-100.00,SSE,165,3.0,8.0,-999,0.00,,,1.61,,2013-06-25 17:11:00,
2013-06-25 12:22:00,79.0,-99.9,-100.00,SSE,165,3.0,8.0,-999,0.00,,,1.61,,2013-06-25 17:22:00,
2013-06-25 12:44:00,81.0,-99.9,-100.00,SE,144,1.0,7.0,-999,0.00,,,1.61,,2013-06-25 17:44:00,
2013-06-25 12:53:00,81.0,-99.9,-100.00,SE,144,1.0,7.0,-999,0.00,,,1.61,,2013-06-25 17:53:00,
2013-06-25 13:12:00,80.0,-99.9,-100.00,SW,226,2.0,6.0,-999,0.00,,,1.61,,2013-06-25 18:12:00,
2013-06-25 13:23:00,80.0,-99.9,-100.00,SW,226,2.0,6.0,-999,0.00,,,1.61,,2013-06-25 18:23:00,
2013-06-25 13:45:00,81.0,-99.9,-100.00,South,170,2.0,3.0,-999,0.00,,,1.61,,2013-06-25 18:45:00,
2013-06-25 13:53:00,81.0,-99.9,-100.00,South,170,2.0,3.0,-999,0.00,,,1.61,,2013-06-25 18:53:00,
2013-06-25 14:12:00,81.0,-99.9,-100.00,SE,132,2.0,3.0,-999,0.00,,,1.61,,2013-06-25 19:12:00,
2013-06-25 14:23:00,81.0,-99.9,-100.00,SE,132,2.0,3.0,-999,0.00,,,1.61,,2013-06-25 19:23:00,
2013-06-25 14:44:00,84.0,-99.9,-100.00,SSE,161,0.0,2.0,-999,0.00,,,1.61,,2013-06-25 19:44:00,
2013-06-25 14:54:00,84.0,-99.9,-100.00,SSE,161,0.0,2.0,-999,0.00,,,1.61,,2013-06-25 19:54:00,
2013-06-25 15:11:00,82.0,-99.9,-100.00,SE,146,4.0,5.0,-999,0.00,,,1.61,,2013-06-25 20:11:00,
2013-06-25 15:22:00,82.0,-99.9,-100.00,SE,146,4.0,5.0,-999,0.00,,,1.61,,2013-06-25 20:22:00,
2013-06-25 15:43:00,82.0,-99.9,-100.00,South,174,1.0,4.0,-999,0.00,,,1.61,,2013-06-25 20:43:00,
2013-06-25 15:52:00,82.0,-99.9,-100.00,South,174,1.0,4.0,-999,0.00,,,1.61,,2013-06-25 20:52:00,
2013-06-25 16:11:00,83.0,-99.9,-100.00,SSW,207,1.0,3.0,-999,0.00,,,1.61,,2013-06-25 21:11:00,
2013-06-25 16:22:00,83.0,-99.9,-100.00,SSW,207,1.0,3.0,-999,0.00,,,1.61,,2013-06-25 21:22:00,
2013-06-25 16:43:00,82.0,-99.9,-100.00,SSW,206,1.0,2.0,-999,0.00,,,1.61,,2013-06-25 21:43:00,
2013-06-25 16:53:00,82.0,-99.9,-100.00,SSW,206,1.0,2.0,-999,0.00,,,1.61,,2013-06-25 21:53:00,
2013-06-25 17:11:00,83.0,-99.9,-100.00,South,177,2.0,8.0,-999,0.00,,,1.30,,2013-06-25 22:11:00,
2013-06-25 17:22:00,83.0,-99.9,-100.00,South,177,2.0,8.0,-999,0.00,,,1.30,,2013-06-25 22:22:00,
2013-06-25 17:42:00,86.0,-99.9,-100.00,WSW,253,1.0,5.0,-999,0.00,,,1.19,,2013-06-25 22:42:00,
2013-06-25 17:52:00,86.0,-99.9,-100.00,WSW,253,1.0,5.0,-999,0.00,,,1.19,,2013-06-25 22:52:00,
2013-06-25 18:11:00,85.0,-99.9,-100.00,SSW,198,2.0,8.0,-999,0.00,,,1.15,,2013-06-25 23:11:00,
2013-06-25 18:22:00,85.0,-99.9,-100.00,SSW,198,2.0,8.0,-999,0.00,,,1.15,,2013-06-25 23:22:00,
2013-06-25 18:30:00,83.0,-99.9,-100.00,SSE,155,1.0,4.0,-999,0.00,,,1.15,,2013-06-25 23:30:00,
2013-06-25 18:44:00,83.0,-99.9,-100.00,South,170,1.0,3.0,-999,0.00,,,1.15,,2013-06-25 23:44:00,
2013-06-25 18:52:00,83.0,-99.9,-100.00,South,170,1.0,3.0,-999,0.00,,,1.15,,2013-06-25 23:52:00,
2013-06-25 19:12:00,83.0,-99.9,-100.00,SSE,155,1.0,4.0,-999,0.00,,,1.15,,2013-06-26 00:12:00,
2013-06-25 19:22:00,83.0,-99.9,-100.00,SSE,155,1.0,4.0,-999,0.00,,,1.15,,2013-06-26 00:22:00,
2013-06-25 20:11:00,81.0,-99.9,-100.00,SSE,152,2.0,4.0,-999,0.00,,,1.15,,2013-06-26 01:11:00,
2013-06-25 20:22:00,81.0,-99.9,-100.00,SSE,152,2.0,4.0,-999,0.00,,,1.15,,2013-06-26 01:22:00,
2013-06-25 20:44:00,77.0,-99.9,-100.00,SSE,153,1.0,3.0,-999,0.00,,,1.15,,2013-06-26 01:44:00,
2013-06-25 20:53:00,77.0,-99.9,-100.00,SSE,153,1.0,3.0,-999,0.00,,,1.15,,2013-06-26 01:53:00,
2013-06-25 21:11:00,76.0,-99.9,-100.00,SSE,149,3.0,4.0,-999,0.00,,,1.15,,2013-06-26 02:11:00,
2013-06-25 21:22:00,76.0,-99.9,-100.00,SSE,149,3.0,4.0,-999,0.00,,,1.15,,2013-06-26 02:22:00,
2013-06-25 21:44:00,76.0,-99.9,-100.00,SSE,152,1.0,1.0,-999,0.00,,,1.15,,2013-06-26 02:44:00,
2013-06-25 21:53:00,76.0,-99.9,-100.00,SSE,152,1.0,1.0,-999,0.00,,,1.15,,2013-06-26 02:53:00,
2013-06-25 22:11:00,75.0,-99.9,-100.00,SSE,150,0.0,2.0,-999,0.00,,,1.15,,2013-06-26 03:11:00,
2013-06-25 22:22:00,75.0,-99.9,-100.00,SSE,150,0.0,2.0,-999,0.00,,,1.15,,2013-06-26 03:22:00,
2013-06-25 22:33:00,75.0,-99.9,-100.00,SE,141,1.0,2.0,-999,0.00,,,1.15,,2013-06-26 03:33:00,
2013-06-25 22:43:00,75.0,-99.9,-100.00,SE,141,1.0,2.0,-999,0.00,,,1.15,,2013-06-26 03:43:00,
2013-06-25 22:52:00,75.0,-99.9,-100.00,SE,141,1.0,2.0,-999,0.00,,,1.15,,2013-06-26 03:52:00,
2013-06-25 23:12:00,76.0,-99.9,-100.00,SSW,202,0.0,2.0,-999,0.00,,,1.15,,2013-06-26 04:12:00,
2013-06-25 23:22:00,76.0,-99.9,-100.00,SSW,202,0.0,2.0,-999,0.00,,,1.15,,2013-06-26 04:22:00,
2013-06-25 23:33:00,74.0,-99.9,-100.00,SSE,159,1.0,3.0,-999,0.00,,,1.15,,2013-06-26 04:33:00,
2013-06-25 23:43:00,74.0,-99.9,-100.00,SSE,159,1.0,3.0,-999,0.00,,,1.15,,2013-06-26 04:43:00,
2013-06-25 23:53:00,74.0,-99.9,-100.00,SSE,159,1.0,3.0,-999,0.00,,,1.15,,2013-06-26 04:53:00,